sensor_id;sensor_type;location;lat;lon;timestamp;pressure;altitude;pressure_sealevel;temperature;humidity
51178;BME280;37243;49.814;8.652;2023-01-29T00:02:07;101527.97;;;25.66;25.45
51178;BME280;37243;49.814;8.652;2023-01-29T00:04:35;101530.72;;;25.66;25.60
51178;BME280;37243;49.814;8.652;2023-01-29T00:07:03;101532.38;;;25.67;25.98
51178;BME280;37243;49.814;8.652;2023-01-29T00:09:35;101543.38;;;25.67;25.70
51178;BME280;37243;49.814;8.652;2023-01-29T00:12:04;101535.13;;;25.67;25.87
51178;BME280;37243;49.814;8.652;2023-01-29T00:14:33;101533.19;;;25.67;25.76
51178;BME280;37243;49.814;8.652;2023-01-29T00:17:01;101527.97;;;25.66;25.44
51178;BME280;37243;49.814;8.652;2023-01-29T00:19:29;101536.22;;;25.66;26.21
51178;BME280;37243;49.814;8.652;2023-01-29T00:21:57;101531.03;;;25.64;26.07
51178;BME280;37243;49.814;8.652;2023-01-29T00:24:26;101533.47;;;25.66;25.87
51178;BME280;37243;49.814;8.652;2023-01-29T00:26:56;101549.97;;;25.66;26.13
51178;BME280;37243;49.814;8.652;2023-01-29T00:29:25;101541.72;;;25.66;25.87
51178;BME280;37243;49.814;8.652;2023-01-29T00:31:53;101532.97;;;25.64;26.07
51178;BME280;37243;49.814;8.652;2023-01-29T00:34:21;101550.28;;;25.64;25.59
51178;BME280;37243;49.814;8.652;2023-01-29T00:36:50;101546.69;;;25.64;25.52
51178;BME280;37243;49.814;8.652;2023-01-29T00:39:29;101556.59;;;25.65;26.04
51178;BME280;37243;49.814;8.652;2023-01-29T00:42:05;101555.78;;;25.64;25.51
51178;BME280;37243;49.814;8.652;2023-01-29T00:44:46;101559.34;;;25.65;26.16
51178;BME280;37243;49.814;8.652;2023-01-29T00:47:26;101551.09;;;25.65;26.13
51178;BME280;37243;49.814;8.652;2023-01-29T00:49:58;101563.69;;;25.66;25.81
51178;BME280;37243;49.814;8.652;2023-01-29T00:52:26;101561.25;;;25.64;26.23
51178;BME280;37243;49.814;8.652;2023-01-29T00:54:56;101556.88;;;25.63;25.36
51178;BME280;37243;49.814;8.652;2023-01-29T00:57:28;101557.41;;;25.65;25.78
51178;BME280;37243;49.814;8.652;2023-01-29T00:59:57;101544.78;;;25.64;26.11
51178;BME280;37243;49.814;8.652;2023-01-29T01:02:26;101551.09;;;25.65;25.58
51178;BME280;37243;49.814;8.652;2023-01-29T01:05:08;101551.09;;;25.65;26.02
51178;BME280;37243;49.814;8.652;2023-01-29T01:07:42;101555.47;;;25.66;25.68
51178;BME280;37243;49.814;8.652;2023-01-29T01:10:14;101548.34;;;25.65;25.92
51178;BME280;37243;49.814;8.652;2023-01-29T01:12:49;101540.09;;;25.65;25.90
51178;BME280;37243;49.814;8.652;2023-01-29T01:15:18;101548.88;;;25.67;25.87
51178;BME280;37243;49.814;8.652;2023-01-29T01:17:46;101546.41;;;25.65;25.82
51178;BME280;37243;49.814;8.652;2023-01-29T01:20:15;101544.47;;;25.66;26.27
51178;BME280;37243;49.814;8.652;2023-01-29T01:22:44;101540.94;;;25.65;26.28
51178;BME280;37243;49.814;8.652;2023-01-29T01:25:12;101549.97;;;25.66;25.55
51178;BME280;37243;49.814;8.652;2023-01-29T01:27:41;101536.22;;;25.66;26.21
51178;BME280;37243;49.814;8.652;2023-01-29T01:30:14;101543.38;;;25.67;25.48
51178;BME280;37243;49.814;8.652;2023-01-29T01:32:42;101541.72;;;25.66;25.81
51178;BME280;37243;49.814;8.652;2023-01-29T01:35:11;101538.44;;;25.64;26.18
51178;BME280;37243;49.814;8.652;2023-01-29T01:37:40;101533.47;;;25.66;26.13
51178;BME280;37243;49.814;8.652;2023-01-29T01:40:13;101528.81;;;25.66;26.10
51178;BME280;37243;49.814;8.652;2023-01-29T01:42:42;101524.44;;;25.65;26.18
51178;BME280;37243;49.814;8.652;2023-01-29T01:45:21;101521.69;;;25.65;25.92
51178;BME280;37243;49.814;8.652;2023-01-29T01:47:54;101531.28;;;25.68;25.93
51178;BME280;37243;49.814;8.652;2023-01-29T01:50:27;101529.63;;;25.67;25.87
51178;BME280;37243;49.814;8.652;2023-01-29T01:52:59;101525.78;;;25.68;25.53
51178;BME280;37243;49.814;8.652;2023-01-29T01:55:30;101516.72;;;25.67;26.17
51178;BME280;37243;49.814;8.652;2023-01-29T01:58:05;101510.38;;;25.67;25.54
51178;BME280;37243;49.814;8.652;2023-01-29T02:00:38;101513.66;;;25.69;26.18
51178;BME280;37243;49.814;8.652;2023-01-29T02:03:09;101506.53;;;25.68;25.76
51178;BME280;37243;49.814;8.652;2023-01-29T02:05:52;101504.91;;;25.67;26.11
51178;BME280;37243;49.814;8.652;2023-01-29T02:08:40;101495.53;;;25.68;25.60
51178;BME280;37243;49.814;8.652;2023-01-29T02:11:22;101485.66;;;25.67;25.58
51178;BME280;37243;49.814;8.652;2023-01-29T02:13:51;101490.88;;;25.68;25.80
51178;BME280;37243;49.814;8.652;2023-01-29T02:16:23;101482.91;;;25.67;25.91
51178;BME280;37243;49.814;8.652;2023-01-29T02:18:52;101493.31;;;25.70;25.60
51178;BME280;37243;49.814;8.652;2023-01-29T02:21:35;101488.41;;;25.67;25.52
51178;BME280;37243;49.814;8.652;2023-01-29T02:24:38;101474.66;;;25.67;25.55
51178;BME280;37243;49.814;8.652;2023-01-29T02:27:14;101488.91;;;25.69;25.49
51178;BME280;37243;49.814;8.652;2023-01-29T02:29:54;101477.41;;;25.67;26.10
51178;BME280;37243;49.814;8.652;2023-01-29T02:32:29;101471.09;;;25.66;25.40
51178;BME280;37243;49.814;8.652;2023-01-29T02:35:08;101482.91;;;25.67;25.64
51178;BME280;37243;49.814;8.652;2023-01-29T02:37:54;101480.97;;;25.67;26.02
51178;BME280;37243;49.814;8.652;2023-01-29T02:40:28;101482.91;;;25.67;25.82
51178;BME280;37243;49.814;8.652;2023-01-29T02:43:05;101482.91;;;25.67;25.82
51178;BME280;37243;49.814;8.652;2023-01-29T02:45:43;101488.41;;;25.67;26.26
51178;BME280;37243;49.814;8.652;2023-01-29T02:48:16;101478.22;;;25.67;26.30
51178;BME280;37243;49.814;8.652;2023-01-29T02:50:49;101485.38;;;25.68;25.42
51178;BME280;37243;49.814;8.652;2023-01-29T02:53:25;101492.78;;;25.68;26.15
51178;BME280;37243;49.814;8.652;2023-01-29T02:55:57;101486.16;;;25.69;26.05
51178;BME280;37243;49.814;8.652;2023-01-29T02:58:30;101497.16;;;25.69;25.73
51178;BME280;37243;49.814;8.652;2023-01-29T03:01:07;101499.91;;;25.69;26.26
51178;BME280;37243;49.814;8.652;2023-01-29T03:03:39;101498.28;;;25.68;25.87
51178;BME280;37243;49.814;8.652;2023-01-29T03:06:11;101512.53;;;25.70;26.15
51178;BME280;37243;49.814;8.652;2023-01-29T03:08:46;101518.03;;;25.70;25.78
51178;BME280;37243;49.814;8.652;2023-01-29T03:11:19;101525.78;;;25.68;25.57
51178;BME280;37243;49.814;8.652;2023-01-29T03:13:51;101530.13;;;25.69;26.09
51178;BME280;37243;49.814;8.652;2023-01-29T03:16:26;101532.09;;;25.68;25.90
51178;BME280;37243;49.814;8.652;2023-01-29T03:19:00;101529.34;;;25.68;25.52
51178;BME280;37243;49.814;8.652;2023-01-29T03:21:32;101530.13;;;25.69;25.41
51178;BME280;37243;49.814;8.652;2023-01-29T03:24:31;101526.28;;;25.70;25.63
51178;BME280;37243;49.814;8.652;2023-01-29T03:27:16;101518.34;;;25.68;25.45
51178;BME280;37243;49.814;8.652;2023-01-29T03:29:59;101519.16;;;25.69;26.13
51178;BME280;37243;49.814;8.652;2023-01-29T03:32:45;101510.91;;;25.69;25.78
51178;BME280;37243;49.814;8.652;2023-01-29T03:35:17;101508.97;;;25.69;25.76
51178;BME280;37243;49.814;8.652;2023-01-29T03:38:01;101516.41;;;25.69;25.86
51178;BME280;37243;49.814;8.652;2023-01-29T03:40:35;101527.38;;;25.69;25.75
51178;BME280;37243;49.814;8.652;2023-01-29T03:43:08;101531.78;;;25.70;25.81
51178;BME280;37243;49.814;8.652;2023-01-29T03:45:45;101524.66;;;25.69;25.57
51178;BME280;37243;49.814;8.652;2023-01-29T03:48:32;101534.03;;;25.68;25.71
51178;BME280;37243;49.814;8.652;2023-01-29T03:51:13;101547.44;;;25.69;26.11
51178;BME280;37243;49.814;8.652;2023-01-29T03:53:47;101548.28;;;25.70;25.67
51178;BME280;37243;49.814;8.652;2023-01-29T03:56:26;101547.75;;;25.68;26.04
51178;BME280;37243;49.814;8.652;2023-01-29T03:59:03;101532.88;;;25.69;26.00
51178;BME280;37243;49.814;8.652;2023-01-29T04:01:39;101525.47;;;25.69;25.22
51178;BME280;37243;49.814;8.652;2023-01-29T04:04:14;101527.94;;;25.71;25.88
51178;BME280;37243;49.814;8.652;2023-01-29T04:06:46;101515.28;;;25.70;26.13
51178;BME280;37243;49.814;8.652;2023-01-29T04:09:19;101517.22;;;25.69;25.95
51178;BME280;37243;49.814;8.652;2023-01-29T04:11:53;101509.81;;;25.70;25.28
51178;BME280;37243;49.814;8.652;2023-01-29T04:14:24;101500.72;;;25.69;26.11
51178;BME280;37243;49.814;8.652;2023-01-29T04:16:55;101503.19;;;25.71;25.96
51178;BME280;37243;49.814;8.652;2023-01-29T04:19:27;101515.28;;;25.70;25.44
51178;BME280;37243;49.814;8.652;2023-01-29T04:22:02;101515.28;;;25.70;25.86
51178;BME280;37243;49.814;8.652;2023-01-29T04:24:31;101519.69;;;25.71;25.96
51178;BME280;37243;49.814;8.652;2023-01-29T04:27:09;101513.38;;;25.70;26.13
51178;BME280;37243;49.814;8.652;2023-01-29T04:29:53;101508.69;;;25.71;25.55
51178;BME280;37243;49.814;8.652;2023-01-29T04:32:28;101501.28;;;25.71;25.43
51178;BME280;37243;49.814;8.652;2023-01-29T04:35:10;101495.78;;;25.71;25.72
51178;BME280;37243;49.814;8.652;2023-01-29T04:37:55;101485.56;;;25.72;26.04
51178;BME280;37243;49.814;8.652;2023-01-29T04:40:35;101480.06;;;25.72;25.58
51178;BME280;37243;49.814;8.652;2023-01-29T04:43:08;101466.66;;;25.70;25.40
51178;BME280;37243;49.814;8.652;2023-01-29T04:45:49;101483.13;;;25.70;25.39
51178;BME280;37243;49.814;8.652;2023-01-29T04:48:25;101490.28;;;25.71;25.71
51178;BME280;37243;49.814;8.652;2023-01-29T04:51:05;101472.97;;;25.71;25.67
51178;BME280;37243;49.814;8.652;2023-01-29T04:53:44;101473.78;;;25.71;25.85
51178;BME280;37243;49.814;8.652;2023-01-29T04:56:20;101475.41;;;25.72;25.59
51178;BME280;37243;49.814;8.652;2023-01-29T04:58:56;101489.97;;;25.73;25.73
51178;BME280;37243;49.814;8.652;2023-01-29T05:01:26;101486.41;;;25.72;25.41
51178;BME280;37243;49.814;8.652;2023-01-29T05:03:59;101491.06;;;25.72;26.06
51178;BME280;37243;49.814;8.652;2023-01-29T05:06:31;101500.97;;;25.73;25.32
51178;BME280;37243;49.814;8.652;2023-01-29T05:09:00;101491.91;;;25.72;25.35
51178;BME280;37243;49.814;8.652;2023-01-29T05:11:29;101503.72;;;25.73;25.38
51178;BME280;37243;49.814;8.652;2023-01-29T05:14:01;101510.03;;;25.73;25.75
51178;BME280;37243;49.814;8.652;2023-01-29T05:16:34;101513.88;;;25.72;25.87
51178;BME280;37243;49.814;8.652;2023-01-29T05:19:06;101525.69;;;25.73;25.26
51178;BME280;37243;49.814;8.652;2023-01-29T05:21:38;101522.94;;;25.73;25.21
51178;BME280;37243;49.814;8.652;2023-01-29T05:24:11;101522.94;;;25.73;25.50
51178;BME280;37243;49.814;8.652;2023-01-29T05:26:41;101521.03;;;25.73;25.61
51178;BME280;37243;49.814;8.652;2023-01-29T05:29:22;101513.88;;;25.72;25.35
51178;BME280;37243;49.814;8.652;2023-01-29T05:31:51;101510.03;;;25.73;25.87
51178;BME280;37243;49.814;8.652;2023-01-29T05:34:19;101510.84;;;25.74;26.04
51178;BME280;37243;49.814;8.652;2023-01-29T05:36:50;101497.13;;;25.74;25.74
51178;BME280;37243;49.814;8.652;2023-01-29T05:39:19;101483.38;;;25.74;25.51
51178;BME280;37243;49.814;8.652;2023-01-29T05:41:47;101492.72;;;25.73;25.68
51178;BME280;37243;49.814;8.652;2023-01-29T05:44:15;101488.88;;;25.74;25.93
51178;BME280;37243;49.814;8.652;2023-01-29T05:46:44;101492.72;;;25.73;25.50
51178;BME280;37243;49.814;8.652;2023-01-29T05:49:12;101488.88;;;25.74;25.59
51178;BME280;37243;49.814;8.652;2023-01-29T05:51:40;101493.53;;;25.73;25.35
51178;BME280;37243;49.814;8.652;2023-01-29T05:54:12;101499.03;;;25.73;25.67
51178;BME280;37243;49.814;8.652;2023-01-29T05:56:41;101495.97;;;25.75;25.79
51178;BME280;37243;49.814;8.652;2023-01-29T05:59:09;101498.72;;;25.75;25.55
51178;BME280;37243;49.814;8.652;2023-01-29T06:01:38;101488.88;;;25.74;25.61
51178;BME280;37243;49.814;8.652;2023-01-29T06:04:06;101497.13;;;25.74;25.51
51178;BME280;37243;49.814;8.652;2023-01-29T06:06:34;101492.41;;;25.74;25.63
51178;BME280;37243;49.814;8.652;2023-01-29T06:09:02;101508.63;;;25.76;25.45
51178;BME280;37243;49.814;8.652;2023-01-29T06:11:33;101507.78;;;25.75;25.23
51178;BME280;37243;49.814;8.652;2023-01-29T06:14:02;101495.97;;;25.75;25.51
51178;BME280;37243;49.814;8.652;2023-01-29T06:16:30;101499.56;;;25.75;25.60
51178;BME280;37243;49.814;8.652;2023-01-29T06:18:58;101494.88;;;25.76;25.93
51178;BME280;37243;49.814;8.652;2023-01-29T06:21:26;101502.31;;;25.75;25.42
51178;BME280;37243;49.814;8.652;2023-01-29T06:23:55;101490.47;;;25.75;25.60
51178;BME280;37243;49.814;8.652;2023-01-29T06:26:23;101485.81;;;25.75;25.66
51178;BME280;37243;49.814;8.652;2023-01-29T06:28:54;101491.03;;;25.77;25.57
51178;BME280;37243;49.814;8.652;2023-01-29T06:31:22;101484.97;;;25.75;25.28
51178;BME280;37243;49.814;8.652;2023-01-29T06:33:50;101479.50;;;25.75;25.30
51178;BME280;37243;49.814;8.652;2023-01-29T06:36:19;101494.06;;;25.75;25.66
51178;BME280;37243;49.814;8.652;2023-01-29T06:38:47;101498.72;;;25.75;25.82
51178;BME280;37243;49.814;8.652;2023-01-29T06:41:17;101498.72;;;25.75;25.53
51178;BME280;37243;49.814;8.652;2023-01-29T06:43:50;101497.63;;;25.76;25.55
51178;BME280;37243;49.814;8.652;2023-01-29T06:46:21;101505.88;;;25.76;25.35
51178;BME280;37243;49.814;8.652;2023-01-29T06:48:49;101504.22;;;25.75;25.65
51178;BME280;37243;49.814;8.652;2023-01-29T06:51:17;101481.97;;;25.76;25.50
51178;BME280;37243;49.814;8.652;2023-01-29T06:53:47;101487.44;;;25.76;25.60
51178;BME280;37243;49.814;8.652;2023-01-29T06:56:15;101483.88;;;25.76;26.01
51178;BME280;37243;49.814;8.652;2023-01-29T06:58:43;101490.19;;;25.76;26.14
51178;BME280;37243;49.814;8.652;2023-01-29T07:01:12;101488.56;;;25.75;25.53
51178;BME280;37243;49.814;8.652;2023-01-29T07:03:43;101489.88;;;25.78;26.03
51178;BME280;37243;49.814;8.652;2023-01-29T07:06:11;101491.03;;;25.77;25.57
51178;BME280;37243;49.814;8.652;2023-01-29T07:08:39;101499.28;;;25.77;26.02
51178;BME280;37243;49.814;8.652;2023-01-29T07:11:08;101502.03;;;25.77;25.61
51178;BME280;37243;49.814;8.652;2023-01-29T07:13:36;101508.03;;;25.79;25.87
51178;BME280;37243;49.814;8.652;2023-01-29T07:16:05;101500.88;;;25.78;26.11
51178;BME280;37243;49.814;8.652;2023-01-29T07:18:33;101498.13;;;25.78;25.69
51178;BME280;37243;49.814;8.652;2023-01-29T07:21:05;101509.13;;;25.78;26.15
51178;BME280;37243;49.814;8.652;2023-01-29T07:23:34;101515.75;;;25.77;25.45
51178;BME280;37243;49.814;8.652;2023-01-29T07:26:03;101513.53;;;25.79;25.38
51178;BME280;37243;49.814;8.652;2023-01-29T07:28:35;101522.88;;;25.78;25.86
51178;BME280;37243;49.814;8.652;2023-01-29T07:31:04;101522.88;;;25.78;25.29
51178;BME280;37243;49.814;8.652;2023-01-29T07:33:33;101535.50;;;25.79;25.62
51178;BME280;37243;49.814;8.652;2023-01-29T07:36:09;101538.25;;;25.79;25.15
51178;BME280;37243;49.814;8.652;2023-01-29T07:38:37;101541.00;;;25.79;25.54
51178;BME280;37243;49.814;8.652;2023-01-29T07:41:05;101535.50;;;25.79;25.18
51178;BME280;37243;49.814;8.652;2023-01-29T07:43:33;101538.53;;;25.77;25.83
51178;BME280;37243;49.814;8.652;2023-01-29T07:46:02;101525.63;;;25.78;25.30
51178;BME280;37243;49.814;8.652;2023-01-29T07:48:31;101526.44;;;25.78;26.03
51178;BME280;37243;49.814;8.652;2023-01-29T07:50:59;101529.19;;;25.78;25.53
51178;BME280;37243;49.814;8.652;2023-01-29T07:53:30;101525.63;;;25.78;25.58
51178;BME280;37243;49.814;8.652;2023-01-29T07:55:58;101517.38;;;25.78;25.68
51178;BME280;37243;49.814;8.652;2023-01-29T07:58:27;101530.31;;;25.77;25.20
51178;BME280;37243;49.814;8.652;2023-01-29T08:00:55;101528.38;;;25.78;26.01
51178;BME280;37243;49.814;8.652;2023-01-29T08:03:23;101535.50;;;25.79;25.80
51178;BME280;37243;49.814;8.652;2023-01-29T08:05:51;101532.75;;;25.79;25.70
51178;BME280;37243;49.814;8.652;2023-01-29T08:08:20;101536.34;;;25.79;25.93
51178;BME280;37243;49.814;8.652;2023-01-29T08:10:50;101527.28;;;25.79;26.00
51178;BME280;37243;49.814;8.652;2023-01-29T08:13:19;101524.53;;;25.79;25.76
51178;BME280;37243;49.814;8.652;2023-01-29T08:15:47;101520.13;;;25.78;25.62
51178;BME280;37243;49.814;8.652;2023-01-29T08:18:15;101511.88;;;25.78;25.79
51178;BME280;37243;49.814;8.652;2023-01-29T08:20:43;101511.88;;;25.78;25.47
51178;BME280;37243;49.814;8.652;2023-01-29T08:23:13;101523.69;;;25.78;25.26
51178;BME280;37243;49.814;8.652;2023-01-29T08:25:42;101530.03;;;25.79;25.47
51178;BME280;37243;49.814;8.652;2023-01-29T08:28:13;101536.34;;;25.79;25.17
51178;BME280;37243;49.814;8.652;2023-01-29T08:30:41;101531.13;;;25.78;25.85
51178;BME280;37243;49.814;8.652;2023-01-29T08:33:10;101544.03;;;25.77;25.57
51178;BME280;37243;49.814;8.652;2023-01-29T08:35:38;101545.69;;;25.78;25.57
51178;BME280;37243;49.814;8.652;2023-01-29T08:38:08;101545.69;;;25.78;25.77
51178;BME280;37243;49.814;8.652;2023-01-29T08:40:36;101531.94;;;25.78;25.29
51178;BME280;37243;49.814;8.652;2023-01-29T08:43:06;101519.03;;;25.79;25.03
51178;BME280;37243;49.814;8.652;2023-01-29T08:45:40;101519.03;;;25.79;25.01
51178;BME280;37243;49.814;8.652;2023-01-29T08:48:09;101498.97;;;25.78;25.43
51178;BME280;37243;49.814;8.652;2023-01-29T08:50:37;101491.53;;;25.79;25.55
51178;BME280;37243;49.814;8.652;2023-01-29T08:53:07;101504.47;;;25.78;25.28
51178;BME280;37243;49.814;8.652;2023-01-29T08:55:36;101515.16;;;25.80;25.16
51178;BME280;37243;49.814;8.652;2023-01-29T08:58:05;101513.53;;;25.79;25.39
51178;BME280;37243;49.814;8.652;2023-01-29T09:00:34;101514.63;;;25.78;25.11
51178;BME280;37243;49.814;8.652;2023-01-29T09:03:05;101513.53;;;25.79;25.28
51178;BME280;37243;49.814;8.652;2023-01-29T09:05:34;101516.28;;;25.79;25.29
51178;BME280;37243;49.814;8.652;2023-01-29T09:08:03;101520.66;;;25.80;25.15
51178;BME280;37243;49.814;8.652;2023-01-29T09:10:31;101519.03;;;25.79;26.24
51178;BME280;37243;49.814;8.652;2023-01-29T09:13:00;101526.97;;;25.80;26.30
51178;BME280;37243;49.814;8.652;2023-01-29T09:15:28;101512.41;;;25.80;26.01
51178;BME280;37243;49.814;8.652;2023-01-29T09:17:57;101523.41;;;25.80;26.18
51178;BME280;37243;49.814;8.652;2023-01-29T09:20:28;101532.47;;;25.80;26.09
51178;BME280;37243;49.814;8.652;2023-01-29T09:22:56;101528.38;;;25.78;25.66
51178;BME280;37243;49.814;8.652;2023-01-29T09:25:24;101538.78;;;25.81;26.42
51178;BME280;37243;49.814;8.652;2023-01-29T09:27:53;101544.28;;;25.81;25.86
51178;BME280;37243;49.814;8.652;2023-01-29T09:30:21;101566.28;;;25.81;25.95
51178;BME280;37243;49.814;8.652;2023-01-29T09:32:50;101564.66;;;25.80;26.10
51178;BME280;37243;49.814;8.652;2023-01-29T09:35:18;101561.91;;;25.80;26.20
51178;BME280;37243;49.814;8.652;2023-01-29T09:37:49;101569.31;;;25.79;26.03
51178;BME280;37243;49.814;8.652;2023-01-29T09:40:23;101575.34;;;25.81;26.22
51178;BME280;37243;49.814;8.652;2023-01-29T09:42:57;101588.25;;;25.81;25.94
51178;BME280;37243;49.814;8.652;2023-01-29T09:45:29;101582.75;;;25.81;25.39
51178;BME280;37243;49.814;8.652;2023-01-29T09:47:59;101573.69;;;25.80;26.10
51178;BME280;37243;49.814;8.652;2023-01-29T09:50:33;101578.41;;;25.80;25.77
51178;BME280;37243;49.814;8.652;2023-01-29T09:53:13;101578.41;;;25.80;25.63
51178;BME280;37243;49.814;8.652;2023-01-29T09:55:47;101580.00;;;25.81;26.01
51178;BME280;37243;49.814;8.652;2023-01-29T09:58:19;101575.66;;;25.80;26.20
51178;BME280;37243;49.814;8.652;2023-01-29T10:00:59;101574.00;;;25.79;25.94
51178;BME280;37243;49.814;8.652;2023-01-29T10:03:54;101564.09;;;25.78;26.19
51178;BME280;37243;49.814;8.652;2023-01-29T10:06:39;101564.94;;;25.78;26.11
51178;BME280;37243;49.814;8.652;2023-01-29T10:09:44;101566.03;;;25.77;26.21
51178;BME280;37243;49.814;8.652;2023-01-29T10:12:29;101558.59;;;25.78;26.01
51178;BME280;37243;49.814;8.652;2023-01-29T10:15:12;101552.28;;;25.77;26.14
51178;BME280;37243;49.814;8.652;2023-01-29T10:17:57;101558.91;;;25.76;25.75
51178;BME280;37243;49.814;8.652;2023-01-29T10:20:49;101558.09;;;25.76;26.26
51178;BME280;37243;49.814;8.652;2023-01-29T10:23:22;101547.63;;;25.78;26.10
51178;BME280;37243;49.814;8.652;2023-01-29T10:25:55;101542.13;;;25.78;26.22
51178;BME280;37243;49.814;8.652;2023-01-29T10:28:28;101536.63;;;25.78;25.97
51178;BME280;37243;49.814;8.652;2023-01-29T10:31:01;101520.44;;;25.76;26.12
51178;BME280;37243;49.814;8.652;2023-01-29T10:33:33;101525.63;;;25.78;26.30
51178;BME280;37243;49.814;8.652;2023-01-29T10:36:07;101517.38;;;25.78;26.25
51178;BME280;37243;49.814;8.652;2023-01-29T10:38:41;101511.88;;;25.78;25.59
51178;BME280;37243;49.814;8.652;2023-01-29T10:41:24;101508.31;;;25.77;25.71
51178;BME280;37243;49.814;8.652;2023-01-29T10:44:06;101510.25;;;25.77;25.53
51178;BME280;37243;49.814;8.652;2023-01-29T10:46:52;101510.78;;;25.79;25.70
51178;BME280;37243;49.814;8.652;2023-01-29T10:49:34;101498.97;;;25.78;26.09
51178;BME280;37243;49.814;8.652;2023-01-29T10:52:13;101495.94;;;25.80;25.80
51178;BME280;37243;49.814;8.652;2023-01-29T10:54:56;101486.03;;;25.79;25.68
51178;BME280;37243;49.814;8.652;2023-01-29T10:57:41;101486.03;;;25.79;25.80
51178;BME280;37243;49.814;8.652;2023-01-29T11:00:18;101484.94;;;25.80;26.00
51178;BME280;37243;49.814;8.652;2023-01-29T11:02:50;101473.94;;;25.80;26.14
51178;BME280;37243;49.814;8.652;2023-01-29T11:05:22;101469.53;;;25.79;25.51
51178;BME280;37243;49.814;8.652;2023-01-29T11:08:00;101475.56;;;25.81;26.18
51178;BME280;37243;49.814;8.652;2023-01-29T11:10:32;101471.19;;;25.80;25.62
51178;BME280;37243;49.814;8.652;2023-01-29T11:13:09;101461.81;;;25.81;26.07
51178;BME280;37243;49.814;8.652;2023-01-29T11:15:41;101455.22;;;25.82;26.21
51178;BME280;37243;49.814;8.652;2023-01-29T11:18:10;101439.81;;;25.81;25.55
51178;BME280;37243;49.814;8.652;2023-01-29T11:20:41;101441.47;;;25.82;25.92
51178;BME280;37243;49.814;8.652;2023-01-29T11:23:24;101439.00;;;25.80;25.54
51178;BME280;37243;49.814;8.652;2023-01-29T11:25:55;101435.97;;;25.82;25.72
51178;BME280;37243;49.814;8.652;2023-01-29T11:28:40;101421.72;;;25.80;25.84
51178;BME280;37243;49.814;8.652;2023-01-29T11:31:21;101428.81;;;25.81;25.36
51178;BME280;37243;49.814;8.652;2023-01-29T11:33:52;101413.97;;;25.82;25.42
51178;BME280;37243;49.814;8.652;2023-01-29T11:36:33;101417.56;;;25.82;26.09
51178;BME280;37243;49.814;8.652;2023-01-29T11:39:14;101415.63;;;25.83;25.40
51178;BME280;37243;49.814;8.652;2023-01-29T11:41:46;101419.16;;;25.83;25.96
51178;BME280;37243;49.814;8.652;2023-01-29T11:44:27;101413.97;;;25.82;25.73
51178;BME280;37243;49.814;8.652;2023-01-29T11:47:05;101410.13;;;25.83;25.79
51178;BME280;37243;49.814;8.652;2023-01-29T11:49:36;101415.63;;;25.83;26.38
51178;BME280;37243;49.814;8.652;2023-01-29T11:52:08;101408.47;;;25.82;26.09
51178;BME280;37243;49.814;8.652;2023-01-29T11:54:42;101399.13;;;25.83;26.26
51178;BME280;37243;49.814;8.652;2023-01-29T11:57:23;101386.50;;;25.82;26.29
51178;BME280;37243;49.814;8.652;2023-01-29T11:59:57;101387.31;;;25.82;25.95
51178;BME280;37243;49.814;8.652;2023-01-29T12:02:31;101381.81;;;25.82;26.02
51178;BME280;37243;49.814;8.652;2023-01-29T12:05:05;101377.94;;;25.83;26.09
51178;BME280;37243;49.814;8.652;2023-01-29T12:07:33;101383.44;;;25.83;25.60
51178;BME280;37243;49.814;8.652;2023-01-29T12:10:29;101375.50;;;25.82;25.92
51178;BME280;37243;49.814;8.652;2023-01-29T12:13:03;101381.50;;;25.84;26.17
51178;BME280;37243;49.814;8.652;2023-01-29T12:15:34;101373.25;;;25.84;25.65
51178;BME280;37243;49.814;8.652;2023-01-29T12:18:10;101374.91;;;25.85;25.59
51178;BME280;37243;49.814;8.652;2023-01-29T12:20:42;101366.66;;;25.85;26.18
51178;BME280;37243;49.814;8.652;2023-01-29T12:23:21;101363.91;;;25.85;25.50
51178;BME280;37243;49.814;8.652;2023-01-29T12:25:59;101360.03;;;25.86;26.04
51178;BME280;37243;49.814;8.652;2023-01-29T12:28:38;101350.16;;;25.85;26.31
51178;BME280;37243;49.814;8.652;2023-01-29T12:31:20;101349.84;;;25.86;26.43
51178;BME280;37243;49.814;8.652;2023-01-29T12:33:54;101356.97;;;25.87;26.16
51178;BME280;37243;49.814;8.652;2023-01-29T12:36:30;101351.50;;;25.87;25.92
51178;BME280;37243;49.814;8.652;2023-01-29T12:39:02;101341.31;;;25.88;25.57
51178;BME280;37243;49.814;8.652;2023-01-29T12:41:36;101333.06;;;25.88;26.11
51178;BME280;37243;49.814;8.652;2023-01-29T12:44:11;101330.31;;;25.88;25.54
51178;BME280;37243;49.814;8.652;2023-01-29T12:46:51;101333.06;;;25.88;26.08
51178;BME280;37243;49.814;8.652;2023-01-29T12:49:23;101331.94;;;25.89;26.26
51178;BME280;37243;49.814;8.652;2023-01-29T12:51:56;101320.16;;;25.88;26.41
51178;BME280;37243;49.814;8.652;2023-01-29T12:54:34;101317.06;;;25.90;25.86
51178;BME280;37243;49.814;8.652;2023-01-29T12:57:08;101313.22;;;25.91;25.97
51178;BME280;37243;49.814;8.652;2023-01-29T12:59:40;101312.41;;;25.90;26.21
51178;BME280;37243;49.814;8.652;2023-01-29T13:02:24;101309.94;;;25.89;25.58
51178;BME280;37243;49.814;8.652;2023-01-29T13:05:00;101310.47;;;25.91;26.10
51178;BME280;37243;49.814;8.652;2023-01-29T13:07:33;101303.03;;;25.91;25.85
51178;BME280;37243;49.814;8.652;2023-01-29T13:10:09;101303.84;;;25.92;25.94
51178;BME280;37243;49.814;8.652;2023-01-29T13:12:52;101301.41;;;25.90;26.09
51178;BME280;37243;49.814;8.652;2023-01-29T13:15:27;101299.97;;;25.93;25.85
51178;BME280;37243;49.814;8.652;2023-01-29T13:18:13;101296.41;;;25.92;26.11
51178;BME280;37243;49.814;8.652;2023-01-29T13:20:45;101301.09;;;25.92;26.12
51178;BME280;37243;49.814;8.652;2023-01-29T13:23:18;101296.13;;;25.94;26.08